Time;durP1;ratioP1;P1;durP2;ratioP2;P2;SDS_P1;SDS_P2;PMS_P1;PMS_P2;Temp;Humidity;BMP_temperature;BMP_pressure;BME280_temperature;BME280_humidity;BME280_pressure;Samples;Min_cycle;Max_cycle;Signal;HPM_P1;HPM_P2
2022/01/24 00:00:12;;;;;;;16.80;15.10;;;;;;;-5.32;79.67;93291.91;5010142;28;20258;-83
2022/01/24 00:02:38;;;;;;;14.87;13.17;;;;;;;-5.24;79.08;93289.31;5011192;28;20187;-82
2022/01/24 00:05:05;;;;;;;17.50;16.10;;;;;;;-5.51;80.08;93259.22;5011712;28;20223;-82
2022/01/24 00:07:31;;;;;;;17.40;15.60;;;;;;;-5.32;79.57;93270.75;5011725;28;20184;-83
2022/01/24 00:10:00;;;;;;;16.10;14.50;;;;;;;-5.15;79.78;93262.03;5011572;28;20230;-83
2022/01/24 00:18:03;;;;;;;16.17;14.67;;;;;;;-5.24;80.00;93268.97;5009609;28;20194;-82
2022/01/24 00:28:23;;;;;;;19.40;16.20;;;;;;;-5.03;80.28;93281.84;5012726;28;20210;-82
2022/01/24 00:30:49;;;;;;;16.57;14.87;;;;;;;-5.27;80.39;93278.66;5010557;28;20216;-82
2022/01/24 00:33:15;;;;;;;18.47;16.63;;;;;;;-5.66;81.53;93267.72;5012701;28;20191;-80
2022/01/24 00:35:41;;;;;;;15.70;14.30;;;;;;;-5.12;80.41;93305.78;5012755;28;20228;-79
2022/01/24 00:38:07;;;;;;;17.00;15.20;;;;;;;-5.07;80.85;93307.81;5011867;28;20234;-79
2022/01/24 00:40:36;;;;;;;17.30;15.50;;;;;;;-5.10;80.24;93283.50;5010759;28;20227;-78
2022/01/24 00:43:05;;;;;;;18.00;15.53;;;;;;;-5.18;80.50;93314.06;5012192;28;20206;-79
2022/01/24 00:45:53;;;;;;;19.70;15.83;;;;;;;-5.09;79.62;93305.44;5010840;28;20258;-79
2022/01/24 00:48:50;;;;;;;19.70;16.63;;;;;;;-5.52;80.46;93242.41;5010803;28;20184;-79
2022/01/24 00:54:03;;;;;;;19.80;17.90;;;;;;;-6.05;79.24;93166.13;5010679;28;20266;-79
2022/01/24 00:56:29;;;;;;;18.73;16.83;;;;;;;-4.94;79.10;93313.16;5010928;28;20195;-79
2022/01/24 00:58:55;;;;;;;14.73;13.63;;;;;;;-5.26;78.64;93268.31;5008774;28;20231;-79
2022/01/24 01:01:20;;;;;;;17.60;15.70;;;;;;;-5.26;78.43;93291.22;5012318;28;20187;-79
2022/01/24 01:03:46;;;;;;;62.10;35.33;;;;;;;-4.96;77.81;93313.31;5010498;28;20606;-79
2022/01/24 01:06:12;;;;;;;20.77;17.77;;;;;;;-5.21;78.45;93271.16;5012115;28;20428;-79
2022/01/24 01:19:40;;;;;;;18.70;16.20;;;;;;;-4.93;79.52;93310.44;5010032;28;20234;-79
2022/01/24 01:22:06;;;;;;;16.43;14.93;;;;;;;-4.90;78.70;93311.84;5025967;28;20203;-79
2022/01/24 01:24:37;;;;;;;16.00;14.60;;;;;;;-5.10;78.41;93295.44;5010623;28;20223;-79
2022/01/24 01:27:08;;;;;;;20.37;15.07;;;;;;;-5.15;78.82;93270.47;5010446;28;20219;-79
2022/01/24 01:29:48;;;;;;;17.70;15.90;;;;;;;-5.15;79.34;93302.75;5011723;28;20280;-79
2022/01/24 01:32:41;;;;;;;22.40;20.03;;;;;;;-4.99;79.54;93290.75;5010555;28;20219;-79
2022/01/24 01:54:27;;;;;;;18.77;16.90;;;;;;;-4.93;78.72;93293.59;4993268;28;20230;-79
2022/01/24 01:56:53;;;;;;;22.43;19.07;;;;;;;-4.95;79.07;93309.81;5011030;28;20195;-79
2022/01/24 01:59:19;;;;;;;23.40;21.00;;;;;;;-5.17;79.43;93284.34;5009546;28;20286;-79
2022/01/24 02:01:44;;;;;;;24.73;22.03;;;;;;;-5.09;78.44;93302.88;5010256;28;20194;-79
2022/01/24 02:04:09;;;;;;;19.47;17.20;;;;;;;-6.24;78.50;93161.44;5009946;28;20250;-80
2022/01/24 02:06:35;;;;;;;20.13;18.00;;;;;;;-5.49;79.81;93280.22;5010404;28;20586;-79
2022/01/24 02:09:08;;;;;;;18.47;16.47;;;;;;;-5.35;79.35;93294.78;5010185;28;20222;-79
2022/01/24 02:11:34;;;;;;;18.30;16.47;;;;;;;-5.55;79.21;93270.72;5009987;28;20198;-79
2022/01/24 02:14:05;;;;;;;23.33;20.97;;;;;;;-5.41;78.25;93292.91;5010352;28;20278;-79
2022/01/24 02:17:07;;;;;;;19.17;17.17;;;;;;;-5.68;77.97;93255.19;5009651;28;20203;-79
2022/01/24 02:24:38;;;;;;;17.80;15.37;;;;;;;-5.82;78.37;93294.03;5008884;28;20816;-79
2022/01/24 02:27:04;;;;;;;16.47;14.77;;;;;;;-5.43;77.12;93307.53;5010189;28;20222;-79
2022/01/24 02:32:13;;;;;;;17.37;15.73;;;;;;;-6.31;77.43;93175.75;5010099;28;20266;-79
2022/01/24 02:34:42;;;;;;;17.33;15.53;;;;;;;-5.38;77.59;93307.81;5009573;28;20215;-79
2022/01/24 02:37:12;;;;;;;18.83;14.37;;;;;;;-5.16;76.70;93312.16;5010380;28;20207;-79
2022/01/24 02:53:03;;;;;;;14.20;13.00;;;;;;;-5.32;78.19;93291.09;5009765;28;20225;-79
2022/01/24 02:55:29;;;;;;;13.47;12.30;;;;;;;-5.16;77.52;93303.72;5009839;28;20337;-79
2022/01/24 02:57:54;;;;;;;15.27;14.07;;;;;;;-5.08;77.71;93313.88;5009904;28;20250;-79
2022/01/24 03:00:19;;;;;;;16.63;14.93;;;;;;;-5.52;77.47;93270.38;5009711;28;20266;-79
2022/01/24 03:02:45;;;;;;;17.73;16.03;;;;;;;-5.25;78.80;93323.34;5009957;28;20191;-79
2022/01/24 03:05:10;;;;;;;16.47;14.80;;;;;;;-5.46;78.29;93274.00;5009948;28;20336;-79
2022/01/24 03:07:36;;;;;;;21.50;19.37;;;;;;;-5.15;77.61;93325.66;5009692;28;20249;-78
2022/01/24 03:10:09;;;;;;;23.80;20.27;;;;;;;-5.01;77.71;93330.03;5010411;28;20223;-78
2022/01/24 03:12:47;;;;;;;19.20;15.97;;;;;;;-5.22;76.57;93272.13;5010080;28;20251;-78
2022/01/24 03:15:13;;;;;;;19.27;16.73;;;;;;;-4.83;76.42;93350.16;5009394;28;20261;-78
2022/01/24 03:17:38;;;;;;;17.10;15.30;;;;;;;-4.86;77.06;93345.41;5009192;28;20195;-78
2022/01/24 03:20:06;;;;;;;17.10;14.93;;;;;;;-5.35;78.34;93304.94;5008211;28;20215;-78
2022/01/24 03:22:31;;;;;;;16.70;15.00;;;;;;;-4.92;78.04;93350.19;5009854;28;20188;-78
2022/01/24 03:24:57;;;;;;;18.03;16.10;;;;;;;-5.15;77.38;93307.84;5008582;28;20231;-78
2022/01/24 03:27:23;;;;;;;16.33;14.87;;;;;;;-4.84;76.73;93362.06;5009498;28;20238;-78
2022/01/24 03:29:49;;;;;;;15.40;13.60;;;;;;;-4.92;76.16;93339.25;5008103;28;20241;-77
2022/01/24 03:32:14;;;;;;;14.30;13.10;;;;;;;-5.13;75.83;93288.13;5009260;28;20209;-78
2022/01/24 03:34:40;;;;;;;14.93;13.63;;;;;;;-5.32;77.94;93317.34;5009724;28;20234;-77
2022/01/24 03:37:07;;;;;;;14.57;13.37;;;;;;;-5.47;78.25;93292.75;5012572;28;20226;-78
2022/01/24 03:39:33;;;;;;;16.13;14.47;;;;;;;-5.30;79.90;93373.94;5012702;28;20281;-78
2022/01/24 03:41:59;;;;;;;16.13;14.50;;;;;;;-5.30;80.56;93356.13;5013851;28;20191;-78
2022/01/24 03:44:26;;;;;;;15.90;14.27;;;;;;;-4.86;77.85;93368.31;5012406;28;20262;-77
2022/01/24 03:49:45;;;;;;;16.90;15.30;;;;;;;-5.24;77.95;93358.00;5012175;28;20293;-78
2022/01/24 03:52:18;;;;;;;16.10;14.47;;;;;;;-5.21;79.54;93356.88;5012325;28;20215;-79
2022/01/24 03:54:43;;;;;;;16.17;14.27;;;;;;;-5.04;77.79;93355.81;5010851;28;20279;-78
2022/01/24 03:57:11;;;;;;;17.10;15.30;;;;;;;-4.76;75.77;93390.03;5012221;28;20218;-80
2022/01/24 03:59:36;;;;;;;16.50;14.90;;;;;;;-5.08;77.18;93382.59;5010773;28;20243;-79
2022/01/24 04:02:02;;;;;;;15.63;14.07;;;;;;;-5.11;78.08;93391.34;5012640;28;20203;-78
2022/01/24 04:04:28;;;;;;;16.00;14.67;;;;;;;-4.90;77.68;93392.53;5011698;28;20231;-78
2022/01/24 04:06:54;;;;;;;17.30;15.63;;;;;;;-5.30;79.46;93381.56;5012113;28;20183;-79
2022/01/24 04:09:19;;;;;;;16.47;14.97;;;;;;;-5.17;78.11;93386.91;5011809;28;20250;-79
2022/01/24 04:11:48;;;;;;;16.83;15.23;;;;;;;-5.10;78.65;93398.03;5011008;28;20248;-79
2022/01/24 04:17:20;;;;;;;16.53;14.83;;;;;;;-5.23;78.96;93402.84;5010730;28;20192;-78
2022/01/24 04:22:37;;;;;;;18.03;16.33;;;;;;;-5.33;80.78;93426.88;5011330;28;20215;-79
2022/01/24 04:25:05;;;;;;;20.43;18.00;;;;;;;-5.61;81.95;93407.88;5011761;28;20234;-79
2022/01/24 04:27:31;;;;;;;21.60;18.43;;;;;;;-5.62;83.04;93419.78;5011933;28;20257;-78
2022/01/24 04:29:57;;;;;;;22.87;20.33;;;;;;;-5.56;83.25;93420.91;5011371;28;20223;-79
2022/01/24 04:32:23;;;;;;;25.10;20.03;;;;;;;-5.44;82.87;93425.50;5011965;28;20215;-79
2022/01/24 04:34:50;;;;;;;22.40;17.67;;;;;;;-5.30;82.13;93437.53;5010460;28;20230;-78
2022/01/24 04:37:16;;;;;;;20.93;18.83;;;;;;;-5.43;82.76;93437.25;5009863;28;20191;-79
2022/01/24 04:39:43;;;;;;;21.03;18.80;;;;;;;-5.56;82.99;93441.25;5011226;28;20231;-79
2022/01/24 04:42:14;;;;;;;22.93;19.90;;;;;;;-5.43;82.20;93409.25;5010274;28;20210;-78
2022/01/24 04:47:22;;;;;;;25.13;18.83;;;;;;;-5.09;80.46;93414.09;5010654;28;20195;-78
2022/01/24 04:54:57;;;;;;;18.27;16.37;;;;;;;-5.40;81.34;93457.28;5011481;28;20227;-78
2022/01/24 04:57:25;;;;;;;18.87;17.00;;;;;;;-5.80;83.23;93424.28;5009290;28;20246;-78
2022/01/24 04:59:53;;;;;;;19.23;17.27;;;;;;;-5.02;81.15;93466.72;5009845;28;20258;-78
2022/01/24 05:02:20;;;;;;;17.47;15.80;;;;;;;-5.13;80.23;93440.81;5010455;28;20293;-78
2022/01/24 05:04:46;;;;;;;18.33;16.43;;;;;;;-5.08;79.90;93467.38;5010524;28;20223;-78
2022/01/24 05:07:12;;;;;;;21.93;17.80;;;;;;;-5.35;79.96;93444.06;5011363;28;20191;-78
2022/01/24 05:09:55;;;;;;;20.70;18.60;;;;;;;-5.32;79.92;93453.91;5010791;28;20274;-78
2022/01/24 05:21:21;;;;;;;18.10;16.20;;;;;;;-5.36;80.46;93478.91;5010933;28;20176;-78
2022/01/24 05:25:51;;;;;;;16.63;15.13;;;;;;;-5.41;79.16;93510.84;5009940;28;20227;-78
2022/01/24 05:28:16;;;;;;;18.20;15.93;;;;;;;-5.42;78.65;93499.09;5011486;28;20198;-78
2022/01/24 05:30:42;;;;;;;18.33;16.23;;;;;;;-5.33;77.55;93509.09;5010437;28;20231;-78
2022/01/24 05:33:07;;;;;;;19.27;16.87;;;;;;;-5.47;78.46;93509.75;5007513;28;20206;-78
2022/01/24 05:35:33;;;;;;;25.27;18.07;;;;;;;-5.42;78.41;93499.91;5007921;28;20242;-78
2022/01/24 05:37:58;;;;;;;21.73;19.63;;;;;;;-5.26;78.05;93511.78;5008395;28;20191;-78
2022/01/24 05:40:24;;;;;;;20.67;18.63;;;;;;;-5.22;77.20;93524.03;5008415;28;20214;-78
2022/01/24 05:42:49;;;;;;;17.27;15.47;;;;;;;-5.20;77.28;93534.81;5008662;28;20179;-77
2022/01/24 05:45:15;;;;;;;17.47;15.87;;;;;;;-5.38;77.50;93531.69;5008878;28;20250;-79
2022/01/24 05:47:40;;;;;;;16.77;15.30;;;;;;;-5.52;77.62;93511.97;5011437;28;20207;-80
2022/01/24 05:50:06;;;;;;;16.57;15.07;;;;;;;-5.45;78.09;93517.22;5011011;28;20223;-80
2022/01/24 05:52:32;;;;;;;16.23;14.63;;;;;;;-5.15;76.70;93530.06;5010307;28;20710;-80
2022/01/24 05:54:58;;;;;;;17.23;15.83;;;;;;;-5.27;76.61;93531.34;5010301;28;20752;-80
2022/01/24 05:57:23;;;;;;;16.73;15.07;;;;;;;-5.15;76.63;93539.41;5009208;28;20265;-80
2022/01/24 05:59:49;;;;;;;16.07;14.47;;;;;;;-5.12;74.95;93537.34;5008316;28;20246;-81
2022/01/24 06:02:14;;;;;;;16.80;15.27;;;;;;;-4.98;75.21;93554.50;5010679;28;20251;-79
2022/01/24 06:04:40;;;;;;;16.67;15.17;;;;;;;-5.37;76.32;93553.59;5009276;28;20250;-80
2022/01/24 06:07:06;;;;;;;16.23;14.57;;;;;;;-5.98;78.65;93522.81;5010889;28;20246;-84
2022/01/24 06:09:31;;;;;;;16.63;15.13;;;;;;;-5.46;78.27;93580.00;5010082;28;20235;-83
2022/01/24 06:11:57;;;;;;;16.10;14.60;;;;;;;-5.50;77.67;93577.94;5008522;28;20191;-80
2022/01/24 06:14:22;;;;;;;17.77;14.43;;;;;;;-5.65;76.26;93587.94;5010370;28;20245;-79
2022/01/24 06:16:48;;;;;;;16.40;14.77;;;;;;;-5.40;75.77;93588.78;5011624;28;20205;-80
2022/01/24 06:19:13;;;;;;;15.90;14.20;;;;;;;-5.27;75.44;93592.41;5009303;28;20215;-78
2022/01/24 06:21:40;;;;;;;15.77;14.20;;;;;;;-5.28;74.14;93567.94;5010375;28;20199;-78
2022/01/24 06:24:05;;;;;;;19.80;17.77;;;;;;;-5.22;73.47;93594.47;5008054;28;20235;-77
2022/01/24 06:26:31;;;;;;;17.63;15.67;;;;;;;-5.34;74.94;93608.47;5009661;28;20238;-78
2022/01/24 06:28:56;;;;;;;14.87;13.50;;;;;;;-5.55;71.63;93608.94;5008363;28;20299;-78
2022/01/24 06:31:22;;;;;;;16.77;15.27;;;;;;;-5.69;71.79;93579.06;5007177;28;20202;-78
2022/01/24 06:33:51;;;;;;;16.77;15.37;;;;;;;-5.85;75.42;93619.72;5008077;28;20222;-81
2022/01/24 06:36:17;;;;;;;21.33;15.87;;;;;;;-5.50;73.38;93614.34;5004895;28;20199;-81
2022/01/24 06:38:43;;;;;;;16.63;14.83;;;;;;;-5.56;75.08;93604.81;5008207;28;20268;-79
2022/01/24 06:41:08;;;;;;;17.63;15.63;;;;;;;-5.12;72.20;93595.88;5008249;28;20187;-82
2022/01/24 06:43:34;;;;;;;17.47;15.67;;;;;;;-4.92;71.21;93611.63;5006290;28;20210;-83
2022/01/24 06:46:01;;;;;;;17.20;15.33;;;;;;;-5.19;72.74;93617.84;5006659;28;20183;-82
2022/01/24 06:48:27;;;;;;;20.27;15.80;;;;;;;-5.23;74.11;93629.28;5005981;28;20769;-84
2022/01/24 06:50:52;;;;;;;19.97;17.53;;;;;;;-4.88;72.58;93619.72;5005756;28;20234;-86
2022/01/24 06:53:18;;;;;;;18.40;15.97;;;;;;;-5.14;71.17;93625.00;5007371;28;20230;-85
2022/01/24 06:55:43;;;;;;;16.53;14.57;;;;;;;-4.99;70.94;93614.03;5006809;28;20223;-79
2022/01/24 06:58:08;;;;;;;18.97;15.80;;;;;;;-5.09;70.22;93608.28;5008109;28;20230;-84
2022/01/24 07:00:34;;;;;;;16.90;15.10;;;;;;;-5.03;69.19;93592.38;5005575;28;20233;-86
2022/01/24 07:03:00;;;;;;;21.77;16.07;;;;;;;-4.61;69.80;93621.91;5004388;28;20251;-83
2022/01/24 07:05:27;;;;;;;16.03;14.53;;;;;;;-4.68;68.94;93629.41;5006383;28;20246;-85
2022/01/24 07:07:56;;;;;;;17.57;14.37;;;;;;;-4.69;69.80;93609.19;5005902;28;20221;-86
2022/01/24 07:10:25;;;;;;;14.23;12.93;;;;;;;-4.35;64.24;93617.38;5007263;28;20241;-78
2022/01/24 07:12:51;;;;;;;15.67;14.07;;;;;;;-4.47;66.97;93593.22;5009256;28;20226;-76
2022/01/24 07:15:19;;;;;;;15.17;13.77;;;;;;;-4.32;68.09;93629.78;5010518;28;20247;-82
2022/01/24 07:18:01;;;;;;;14.60;13.30;;;;;;;-4.36;68.42;93633.63;5012447;28;20187;-77
2022/01/24 07:20:27;;;;;;;14.93;13.60;;;;;;;-4.57;69.30;93638.44;5009729;28;20258;-76
2022/01/24 07:22:52;;;;;;;15.40;13.70;;;;;;;-4.76;70.92;93613.34;5011350;28;20187;-76
2022/01/24 07:25:17;;;;;;;15.27;13.77;;;;;;;-4.25;69.23;93628.94;5011223;28;21342;-77
2022/01/24 07:27:43;;;;;;;15.90;14.33;;;;;;;-4.25;69.00;93628.94;5010353;28;20207;-79
2022/01/24 07:30:09;;;;;;;15.30;13.77;;;;;;;-3.81;64.08;93624.94;5010877;28;20249;-75
2022/01/24 07:32:34;;;;;;;15.13;13.73;;;;;;;-3.40;61.55;93630.59;5010563;28;20240;-78
2022/01/24 07:35:00;;;;;;;13.90;12.53;;;;;;;-3.88;62.56;93598.53;5009976;28;20234;-80
2022/01/24 07:37:25;;;;;;;14.93;13.33;;;;;;;-4.45;66.58;93601.50;5010423;28;20409;-78
2022/01/24 07:39:52;;;;;;;20.33;15.00;;;;;;;-4.30;66.01;93628.66;5010147;28;20243;-78
2022/01/24 07:42:28;;;;;;;16.97;15.20;;;;;;;-4.16;66.12;93658.56;5010037;28;20192;-86
2022/01/24 07:44:54;;;;;;;17.67;15.17;;;;;;;-4.12;65.47;93664.13;5010431;28;20227;-80
2022/01/24 07:47:20;;;;;;;16.93;15.13;;;;;;;-4.26;65.15;93663.06;5012382;28;20183;-79
2022/01/24 07:49:46;;;;;;;18.27;15.17;;;;;;;-4.08;66.96;93678.13;5005144;28;20235;-79
2022/01/24 07:52:11;;;;;;;17.10;14.90;;;;;;;-4.04;68.51;93676.84;5009600;28;20196;-79
2022/01/24 07:54:37;;;;;;;16.53;15.03;;;;;;;-3.92;66.94;93639.84;5009204;28;20219;-86
2022/01/24 07:57:02;;;;;;;16.50;14.80;;;;;;;-3.42;63.31;93673.34;5010276;28;20207;-82
2022/01/24 07:59:28;;;;;;;15.47;14.27;;;;;;;-3.62;61.79;93656.88;5010431;28;20231;-87
2022/01/24 08:01:53;;;;;;;19.80;14.27;;;;;;;-3.99;63.78;93672.84;5009623;28;20195;-79
2022/01/24 08:04:19;;;;;;;15.83;14.37;;;;;;;-4.12;63.04;93679.41;5010061;28;20288;-79
2022/01/24 08:06:47;;;;;;;15.57;13.97;;;;;;;-4.25;63.27;93668.94;5010956;28;20207;-83
2022/01/24 08:09:13;;;;;;;16.60;15.00;;;;;;;-4.48;63.30;93652.78;5009967;28;20246;-88
2022/01/24 08:11:38;;;;;;;14.70;13.50;;;;;;;-4.37;65.92;93701.63;5010028;28;20192;-82
2022/01/24 08:14:08;;;;;;;14.70;13.20;;;;;;;-4.31;63.93;93685.69;5007288;28;20234;-86
2022/01/24 08:16:35;;;;;;;15.40;13.90;;;;;;;-4.29;64.46;93682.97;5010991;28;20195;-82
2022/01/24 08:19:00;;;;;;;16.33;14.83;;;;;;;-4.13;64.53;93704.13;5007808;28;20239;-82
2022/01/24 08:21:26;;;;;;;15.27;14.03;;;;;;;-4.04;62.71;93707.44;5010584;28;20247;-82
2022/01/24 08:23:51;;;;;;;15.93;14.40;;;;;;;-4.11;62.08;93701.41;5009270;28;20254;-83
2022/01/24 08:26:17;;;;;;;15.23;13.90;;;;;;;-4.01;62.51;93700.25;5009348;28;20179;-80
2022/01/24 08:28:43;;;;;;;15.73;14.27;;;;;;;-3.97;61.88;93713.47;5010867;28;20222;-81
2022/01/24 08:31:08;;;;;;;16.13;14.70;;;;;;;-4.05;63.09;93696.47;5008566;28;20207;-79
2022/01/24 08:33:34;;;;;;;14.70;13.40;;;;;;;-4.02;61.42;93664.72;5004764;28;20210;-78
2022/01/24 08:36:00;;;;;;;14.87;13.37;;;;;;;-3.45;60.86;93740.03;5009589;28;20202;-79
2022/01/24 08:38:27;;;;;;;17.10;15.70;;;;;;;-3.33;61.15;93738.69;5005929;28;20207;-84
2022/01/24 08:40:57;;;;;;;16.87;15.03;;;;;;;-3.46;62.59;93685.66;5003305;28;20229;-83
2022/01/24 08:46:09;;;;;;;15.10;13.73;;;;;;;-2.78;60.53;93741.06;4972251;28;20207;-80
2022/01/24 08:48:35;;;;;;;14.10;12.90;;;;;;;-2.69;57.77;93712.75;5008886;28;20198;-80
2022/01/24 08:51:01;;;;;;;14.07;12.87;;;;;;;-2.55;59.81;93716.31;5010974;28;20202;-84
2022/01/24 08:53:31;;;;;;;14.30;13.07;;;;;;;-2.02;57.20;93727.16;5010801;28;20194;-88
2022/01/24 08:56:01;;;;;;;13.70;12.60;;;;;;;-2.13;59.18;93716.53;5010576;28;20218;-85
2022/01/24 08:58:27;;;;;;;14.30;13.10;;;;;;;-2.07;54.84;93719.19;5009728;28;20238;-84
2022/01/24 09:00:53;;;;;;;14.50;13.20;;;;;;;-2.46;56.37;93710.16;5008953;28;20235;-85
2022/01/24 09:03:18;;;;;;;15.13;13.83;;;;;;;-1.91;58.76;93743.81;5010987;28;20286;-78
2022/01/24 09:05:45;;;;;;;15.60;14.40;;;;;;;-1.68;55.51;93750.44;5009764;28;20234;-75
2022/01/24 09:08:11;;;;;;;16.07;14.60;;;;;;;-2.07;57.28;93732.00;5010424;28;20200;-76
2022/01/24 09:10:43;;;;;;;15.17;13.90;;;;;;;-1.35;54.09;93744.97;5009799;28;20274;-76
2022/01/24 09:13:09;;;;;;;15.43;13.90;;;;;;;-1.42;53.34;93714.16;5008524;28;20191;-76
2022/01/24 09:15:34;;;;;;;14.87;13.67;;;;;;;-1.70;53.82;93747.25;5007860;28;20242;-77
2022/01/24 09:18:01;;;;;;;17.30;15.57;;;;;;;-2.12;56.41;93723.25;5009882;28;20203;-76
2022/01/24 09:20:26;;;;;;;17.00;15.40;;;;;;;-2.51;55.99;93745.66;5010057;28;20232;-76
2022/01/24 09:22:53;;;;;;;15.63;14.03;;;;;;;-2.58;56.09;93739.63;5008843;28;20230;-77
2022/01/24 09:25:20;;;;;;;16.40;15.10;;;;;;;-2.27;58.09;93743.69;5010319;28;20247;-81
2022/01/24 09:27:47;;;;;;;15.97;14.67;;;;;;;-2.04;55.44;93744.44;5007999;28;20187;-83
2022/01/24 09:30:16;;;;;;;14.90;13.50;;;;;;;-2.19;55.57;93742.81;5007520;28;20239;-84
2022/01/24 09:32:42;;;;;;;17.03;15.40;;;;;;;-2.38;56.95;93708.31;5008296;28;20195;-80
2022/01/24 09:35:09;;;;;;;16.27;14.87;;;;;;;-2.03;55.37;93730.69;5009037;28;20242;-77
2022/01/24 09:37:36;;;;;;;15.47;14.27;;;;;;;-2.24;53.51;93711.88;5005132;28;20264;-79
2022/01/24 09:40:02;;;;;;;15.93;14.73;;;;;;;-2.60;54.97;93739.81;5007158;28;20258;-77
2022/01/24 09:42:28;;;;;;;14.97;13.60;;;;;;;-2.66;54.26;93727.72;5009063;28;20203;-77
2022/01/24 09:44:55;;;;;;;17.57;16.07;;;;;;;-2.29;52.82;93748.19;5010331;28;20235;-86
2022/01/24 09:47:20;;;;;;;14.80;13.70;;;;;;;-3.22;53.01;93636.19;5007742;28;20201;-85
2022/01/24 09:49:48;;;;;;;14.83;13.53;;;;;;;-2.78;55.17;93736.75;5008812;28;20226;-77
2022/01/24 09:52:13;;;;;;;14.93;13.53;;;;;;;-3.25;53.69;93750.66;5009086;28;20203;-81
2022/01/24 09:54:39;;;;;;;15.27;13.83;;;;;;;-3.88;53.70;93726.03;5009153;28;20249;-81
2022/01/24 09:57:04;;;;;;;15.03;13.83;;;;;;;-3.70;54.73;93736.00;5007724;28;20279;-79
2022/01/24 09:59:31;;;;;;;15.07;13.53;;;;;;;-3.77;54.83;93715.47;5007575;28;20895;-78
2022/01/24 10:01:59;;;;;;;15.77;14.40;;;;;;;-3.63;58.49;93716.53;5007712;28;20214;-79
2022/01/24 10:04:26;;;;;;;17.57;16.13;;;;;;;-3.12;58.12;93715.13;5008389;28;20226;-83
2022/01/24 10:07:07;;;;;;;15.87;14.60;;;;;;;-3.13;57.08;93637.75;5009349;28;20206;-87
2022/01/24 10:09:44;;;;;;;16.37;14.13;;;;;;;-2.19;55.32;93730.84;5008221;28;20245;-86
2022/01/24 10:17:53;;;;;;;15.70;14.43;;;;;;;-2.02;51.60;93704.13;5007621;28;20210;-76
2022/01/24 10:20:29;;;;;;;15.00;13.70;;;;;;;-1.73;52.67;93711.78;5007357;28;20948;-77
2022/01/24 10:23:03;;;;;;;15.87;14.37;;;;;;;-1.28;49.78;93722.78;5008475;28;20203;-86
2022/01/24 10:25:29;;;;;;;15.27;13.93;;;;;;;-1.67;48.80;93711.06;5008175;28;20223;-82
2022/01/24 10:28:03;;;;;;;15.60;14.27;;;;;;;-1.39;51.52;93738.59;5008580;28;20203;-79
2022/01/24 10:30:32;;;;;;;15.53;14.23;;;;;;;-2.28;50.84;93737.00;5005264;28;20219;-80
2022/01/24 10:33:00;;;;;;;16.93;15.50;;;;;;;-2.80;52.09;93727.69;5008303;28;20192;-79
2022/01/24 10:35:36;;;;;;;16.13;14.60;;;;;;;-2.87;53.67;93744.66;5007655;28;20238;-81
2022/01/24 10:41:06;;;;;;;16.20;14.73;;;;;;;-3.24;53.66;93735.16;5007349;28;20230;-79
2022/01/24 10:43:33;;;;;;;16.07;14.57;;;;;;;-3.70;55.81;93728.34;5006321;28;20179;-80
2022/01/24 10:45:59;;;;;;;16.07;14.67;;;;;;;-4.11;55.98;93714.16;5012401;28;20195;-81
2022/01/24 10:48:34;;;;;;;14.40;13.17;;;;;;;-4.07;55.55;93744.25;5011392;28;20187;-79
2022/01/24 10:51:18;;;;;;;15.07;13.87;;;;;;;-4.15;56.37;93720.53;5009068;28;20202;-80
2022/01/24 10:53:55;;;;;;;14.80;13.53;;;;;;;-3.96;55.12;93727.81;5008627;28;20392;-81
2022/01/24 10:56:31;;;;;;;15.53;14.17;;;;;;;-3.82;55.81;93756.00;5011716;28;20281;-79
2022/01/24 10:59:16;;;;;;;15.40;14.10;;;;;;;-3.99;55.42;93746.78;5012343;28;20229;-81
2022/01/24 11:01:44;;;;;;;15.70;14.40;;;;;;;-4.06;55.71;93720.34;5035877;28;20202;-80
2022/01/24 11:04:15;;;;;;;14.60;13.50;;;;;;;-3.65;55.98;93743.97;5011935;28;20250;-78
2022/01/24 11:06:44;;;;;;;14.27;12.97;;;;;;;-3.62;56.58;93735.97;5012050;28;20203;-77
2022/01/24 11:09:24;;;;;;;16.33;14.83;;;;;;;-3.70;56.39;93725.78;5012145;28;20243;-76
2022/01/24 11:11:55;;;;;;;16.00;13.63;;;;;;;-3.22;55.70;93735.00;5009669;28;20176;-77
2022/01/24 11:14:23;;;;;;;15.50;13.90;;;;;;;-3.10;55.56;93744.66;5009635;28;20258;-80
2022/01/24 11:16:49;;;;;;;16.10;14.73;;;;;;;-3.27;55.85;93743.16;5011870;28;20195;-83
2022/01/24 11:19:26;;;;;;;15.60;14.30;;;;;;;-3.49;56.76;93734.47;5011842;28;20230;-78
2022/01/24 11:21:53;;;;;;;15.63;14.07;;;;;;;-3.65;55.33;93741.41;5008028;28;20966;-77
2022/01/24 11:24:23;;;;;;;14.03;12.87;;;;;;;-3.80;56.56;93745.63;5009400;28;20241;-79
2022/01/24 11:26:49;;;;;;;15.10;13.70;;;;;;;-4.13;56.77;93739.00;5010698;28;20195;-78
2022/01/24 11:29:17;;;;;;;13.50;12.37;;;;;;;-4.24;57.89;93741.91;5010773;28;20214;-77
2022/01/24 11:31:55;;;;;;;14.43;13.23;;;;;;;-4.47;58.81;93678.09;5010759;28;20255;-79
2022/01/24 11:34:35;;;;;;;15.07;13.60;;;;;;;-3.38;59.38;93746.09;5011709;28;20254;-80
2022/01/24 11:37:00;;;;;;;15.67;13.93;;;;;;;-3.37;58.23;93748.47;5011043;28;20261;-84
2022/01/24 11:39:26;;;;;;;15.63;14.13;;;;;;;-3.62;58.51;93665.34;5008425;28;20224;-84
2022/01/24 11:41:52;;;;;;;16.30;14.73;;;;;;;-3.17;58.35;93710.53;5008817;28;20218;-79
2022/01/24 11:44:21;;;;;;;15.23;13.87;;;;;;;-3.20;55.78;93712.63;5010877;28;20282;-78
2022/01/24 11:46:55;;;;;;;14.27;12.97;;;;;;;-3.65;54.91;93743.97;5010905;28;20191;-78
2022/01/24 11:49:35;;;;;;;15.63;14.03;;;;;;;-3.83;55.71;93741.63;5009662;28;20227;-79
2022/01/24 11:52:10;;;;;;;16.30;14.87;;;;;;;-4.13;57.26;93736.47;5009396;28;20214;-79
2022/01/24 11:54:53;;;;;;;15.10;13.70;;;;;;;-4.04;55.73;93749.03;5009013;28;20219;-77
2022/01/24 11:57:24;;;;;;;15.27;13.90;;;;;;;-4.10;55.88;93743.78;5008775;28;20235;-82
2022/01/24 12:00:01;;;;;;;17.60;15.23;;;;;;;-4.53;58.00;93741.63;5007527;28;20273;-82
2022/01/24 12:02:29;;;;;;;16.80;15.00;;;;;;;-4.59;56.96;93755.00;5008989;28;20187;-82
2022/01/24 12:05:18;;;;;;;16.07;14.67;;;;;;;-5.30;57.99;93686.06;5008112;28;20249;-82
2022/01/24 12:07:51;;;;;;;16.53;15.00;;;;;;;-5.07;58.52;93718.38;5009387;28;20183;-81
2022/01/24 12:10:27;;;;;;;15.37;13.83;;;;;;;-4.79;58.22;93763.91;5008180;28;20257;-83
2022/01/24 12:13:01;;;;;;;14.27;13.07;;;;;;;-5.39;58.53;93764.13;5008293;28;20198;-82
2022/01/24 12:15:39;;;;;;;14.77;13.57;;;;;;;-5.04;58.80;93753.69;5011999;28;20214;-82
2022/01/24 12:18:16;;;;;;;14.27;13.07;;;;;;;-5.09;56.74;93765.31;5009477;28;20219;-81
2022/01/24 12:20:42;;;;;;;15.13;13.83;;;;;;;-4.90;56.99;93764.22;5008272;28;20291;-83
2022/01/24 12:23:16;;;;;;;14.17;13.00;;;;;;;-4.63;56.13;93769.00;5010777;28;20203;-82
2022/01/24 12:26:06;;;;;;;15.03;13.67;;;;;;;-4.50;55.93;93766.78;5008681;28;20236;-83
2022/01/24 12:28:44;;;;;;;15.47;13.83;;;;;;;-4.49;57.19;93774.25;5008771;28;20192;-82
2022/01/24 12:31:24;;;;;;;14.50;13.30;;;;;;;-4.56;56.03;93767.41;5008907;28;20195;-81
2022/01/24 12:34:08;;;;;;;14.43;13.17;;;;;;;-4.36;55.48;93758.50;5008473;28;20199;-83
2022/01/24 12:36:46;;;;;;;15.30;13.90;;;;;;;-4.49;56.37;93763.25;5009194;28;20192;-82
2022/01/24 12:39:24;;;;;;;15.30;13.93;;;;;;;-4.61;57.75;93775.53;5008203;28;20290;-81
2022/01/24 12:42:06;;;;;;;15.20;13.90;;;;;;;-4.88;57.81;93767.38;5008793;28;20190;-76
2022/01/24 12:47:08;;;;;;;15.47;14.23;;;;;;;-4.71;58.06;93784.28;5009047;28;20196;-78
2022/01/24 12:49:34;;;;;;;17.13;15.63;;;;;;;-5.21;58.02;93736.00;5008068;28;20239;-78
2022/01/24 12:52:03;;;;;;;15.33;13.70;;;;;;;-4.69;58.62;93787.47;5007664;28;20206;-80
2022/01/24 12:54:34;;;;;;;16.47;14.90;;;;;;;-4.76;58.62;93730.50;5009040;28;20231;-84
2022/01/24 12:57:07;;;;;;;13.93;12.80;;;;;;;-4.14;57.07;93789.19;5006589;28;20215;-81
2022/01/24 12:59:34;;;;;;;14.17;13.17;;;;;;;-4.34;54.54;93789.72;5034270;28;20227;-79
2022/01/24 13:02:02;;;;;;;15.47;14.20;;;;;;;-4.33;56.77;93743.69;5007494;28;20204;-80
2022/01/24 13:04:40;;;;;;;15.23;13.93;;;;;;;-4.29;56.17;93764.53;5008407;28;20227;-78
2022/01/24 13:07:07;;;;;;;16.90;14.23;;;;;;;-4.44;55.71;93738.09;5009002;28;20187;-79
2022/01/24 13:09:35;;;;;;;15.20;14.03;;;;;;;-4.27;56.12;93783.00;5008703;28;20257;-79
2022/01/24 13:12:05;;;;;;;16.30;14.90;;;;;;;-4.66;56.41;93710.75;5008094;28;20277;-79